sensor_id;sensor_type;location;lat;lon;timestamp;temperature;humidity
6355;DHT22;3210;48.708;9.030;2023-05-18T18:32:47;14.20;1.00
6355;DHT22;3210;48.708;9.030;2023-05-18T18:35:17;14.40;1.00
6355;DHT22;3210;48.708;9.030;2023-05-18T18:37:44;14.30;1.00
6355;DHT22;3210;48.708;9.030;2023-05-18T18:40:15;14.10;1.00
6355;DHT22;3210;48.708;9.030;2023-05-18T18:42:42;14.00;1.00
6355;DHT22;3210;48.708;9.030;2023-05-18T18:45:10;14.00;1.00
6355;DHT22;3210;48.708;9.030;2023-05-18T18:47:36;13.90;1.00
6355;DHT22;3210;48.708;9.030;2023-05-18T18:50:06;13.70;1.00
6355;DHT22;3210;48.708;9.030;2023-05-18T18:52:33;13.70;1.00
6355;DHT22;3210;48.708;9.030;2023-05-18T18:55:00;13.60;1.00
6355;DHT22;3210;48.708;9.030;2023-05-18T18:57:27;13.60;1.00
6355;DHT22;3210;48.708;9.030;2023-05-18T18:59:54;13.50;1.00
6355;DHT22;3210;48.708;9.030;2023-05-18T19:02:23;13.50;1.00
6355;DHT22;3210;48.708;9.030;2023-05-18T19:04:50;13.50;1.00
6355;DHT22;3210;48.708;9.030;2023-05-18T19:07:18;13.30;1.00
6355;DHT22;3210;48.708;9.030;2023-05-18T19:09:45;13.30;1.00
6355;DHT22;3210;48.708;9.030;2023-05-18T19:12:13;13.20;1.00
6355;DHT22;3210;48.708;9.030;2023-05-18T19:14:40;13.10;1.00
6355;DHT22;3210;48.708;9.030;2023-05-18T19:17:07;13.10;1.00
6355;DHT22;3210;48.708;9.030;2023-05-18T19:19:34;13.00;1.00
6355;DHT22;3210;48.708;9.030;2023-05-18T19:22:01;13.00;1.00
6355;DHT22;3210;48.708;9.030;2023-05-18T19:24:30;13.00;1.00
6355;DHT22;3210;48.708;9.030;2023-05-18T19:26:56;13.00;1.00
6355;DHT22;3210;48.708;9.030;2023-05-18T19:29:23;12.90;1.00
6355;DHT22;3210;48.708;9.030;2023-05-18T19:31:52;12.90;1.00
6355;DHT22;3210;48.708;9.030;2023-05-18T19:34:19;12.90;1.00
6355;DHT22;3210;48.708;9.030;2023-05-18T19:36:46;12.80;1.00
6355;DHT22;3210;48.708;9.030;2023-05-18T19:39:14;12.80;1.00
6355;DHT22;3210;48.708;9.030;2023-05-18T19:41:43;12.80;1.00
6355;DHT22;3210;48.708;9.030;2023-05-18T19:44:10;12.90;1.00
6355;DHT22;3210;48.708;9.030;2023-05-18T19:46:37;13.00;1.00
6355;DHT22;3210;48.708;9.030;2023-05-18T19:49:04;13.00;1.00
6355;DHT22;3210;48.708;9.030;2023-05-18T19:51:32;13.10;1.00
6355;DHT22;3210;48.708;9.030;2023-05-18T19:53:59;13.10;1.00
6355;DHT22;3210;48.708;9.030;2023-05-18T19:56:25;13.10;1.00
6355;DHT22;3210;48.708;9.030;2023-05-18T19:58:53;13.10;1.00
6355;DHT22;3210;48.708;9.030;2023-05-18T20:01:22;13.00;1.00
6355;DHT22;3210;48.708;9.030;2023-05-18T20:03:50;13.00;1.00
6355;DHT22;3210;48.708;9.030;2023-05-18T20:06:18;12.90;1.00
6355;DHT22;3210;48.708;9.030;2023-05-18T20:08:44;12.90;1.00
6355;DHT22;3210;48.708;9.030;2023-05-18T20:11:12;12.90;1.00
6355;DHT22;3210;48.708;9.030;2023-05-18T20:13:39;12.80;1.00
6355;DHT22;3210;48.708;9.030;2023-05-18T20:16:08;12.60;1.00
6355;DHT22;3210;48.708;9.030;2023-05-18T20:18:35;12.50;1.00
6355;DHT22;3210;48.708;9.030;2023-05-18T20:21:03;12.40;1.00
6355;DHT22;3210;48.708;9.030;2023-05-18T20:23:29;12.30;1.00
6355;DHT22;3210;48.708;9.030;2023-05-18T20:25:56;12.30;1.00
6355;DHT22;3210;48.708;9.030;2023-05-18T20:28:23;12.30;1.00
6355;DHT22;3210;48.708;9.030;2023-05-18T20:30:51;12.20;1.00
6355;DHT22;3210;48.708;9.030;2023-05-18T20:33:19;12.20;1.00
6355;DHT22;3210;48.708;9.030;2023-05-18T20:35:48;12.00;1.00
6355;DHT22;3210;48.708;9.030;2023-05-18T20:38:19;11.90;1.00
6355;DHT22;3210;48.708;9.030;2023-05-18T20:40:50;11.70;1.00
6355;DHT22;3210;48.708;9.030;2023-05-18T20:43:18;11.60;1.00
6355;DHT22;3210;48.708;9.030;2023-05-18T20:45:45;11.50;1.00
6355;DHT22;3210;48.708;9.030;2023-05-18T20:48:13;11.40;1.00
6355;DHT22;3210;48.708;9.030;2023-05-18T20:50:51;11.30;1.00
6355;DHT22;3210;48.708;9.030;2023-05-18T20:53:17;11.10;1.00
6355;DHT22;3210;48.708;9.030;2023-05-18T20:55:44;11.10;1.00
6355;DHT22;3210;48.708;9.030;2023-05-18T20:58:14;11.00;1.00
6355;DHT22;3210;48.708;9.030;2023-05-18T21:00:45;10.80;1.00
6355;DHT22;3210;48.708;9.030;2023-05-18T21:03:12;10.80;1.00
6355;DHT22;3210;48.708;9.030;2023-05-18T21:05:39;10.70;1.00
6355;DHT22;3210;48.708;9.030;2023-05-18T21:08:12;10.70;1.00
6355;DHT22;3210;48.708;9.030;2023-05-18T21:10:39;10.60;1.00
6355;DHT22;3210;48.708;9.030;2023-05-18T21:13:06;10.60;1.00
6355;DHT22;3210;48.708;9.030;2023-05-18T21:15:36;10.60;1.00
6355;DHT22;3210;48.708;9.030;2023-05-18T21:18:04;10.60;1.00
6355;DHT22;3210;48.708;9.030;2023-05-18T21:20:31;10.60;1.00
6355;DHT22;3210;48.708;9.030;2023-05-18T21:22:58;10.60;1.00
6355;DHT22;3210;48.708;9.030;2023-05-18T21:25:26;10.60;1.00
6355;DHT22;3210;48.708;9.030;2023-05-18T21:27:53;10.60;1.00
6355;DHT22;3210;48.708;9.030;2023-05-18T21:30:20;10.60;1.00
6355;DHT22;3210;48.708;9.030;2023-05-18T21:32:49;10.70;1.00
6355;DHT22;3210;48.708;9.030;2023-05-18T21:35:17;10.70;1.00
6355;DHT22;3210;48.708;9.030;2023-05-18T21:37:46;10.60;1.00
6355;DHT22;3210;48.708;9.030;2023-05-18T21:40:16;10.60;1.00
6355;DHT22;3210;48.708;9.030;2023-05-18T21:42:47;10.60;1.00
6355;DHT22;3210;48.708;9.030;2023-05-18T21:45:16;10.60;1.00
6355;DHT22;3210;48.708;9.030;2023-05-18T21:47:45;10.60;1.00
6355;DHT22;3210;48.708;9.030;2023-05-18T21:50:14;10.60;1.00
6355;DHT22;3210;48.708;9.030;2023-05-18T21:52:41;10.60;1.00
6355;DHT22;3210;48.708;9.030;2023-05-18T21:55:08;10.60;1.00
6355;DHT22;3210;48.708;9.030;2023-05-18T21:57:35;10.70;1.00
6355;DHT22;3210;48.708;9.030;2023-05-18T22:00:04;10.60;1.00
6355;DHT22;3210;48.708;9.030;2023-05-18T22:02:31;10.60;1.00
6355;DHT22;3210;48.708;9.030;2023-05-18T22:04:58;10.60;1.00
6355;DHT22;3210;48.708;9.030;2023-05-18T22:07:25;10.60;1.00
6355;DHT22;3210;48.708;9.030;2023-05-18T22:09:52;10.60;1.00
6355;DHT22;3210;48.708;9.030;2023-05-18T22:12:19;10.70;1.00
6355;DHT22;3210;48.708;9.030;2023-05-18T22:14:46;10.70;1.00
6355;DHT22;3210;48.708;9.030;2023-05-18T22:17:14;10.70;1.00
6355;DHT22;3210;48.708;9.030;2023-05-18T22:19:42;10.70;1.00
6355;DHT22;3210;48.708;9.030;2023-05-18T22:22:10;10.70;1.00
6355;DHT22;3210;48.708;9.030;2023-05-18T22:24:36;10.80;1.00
6355;DHT22;3210;48.708;9.030;2023-05-18T22:27:03;10.90;1.00
6355;DHT22;3210;48.708;9.030;2023-05-18T22:29:30;10.80;1.00
6355;DHT22;3210;48.708;9.030;2023-05-18T22:31:57;10.80;1.00
6355;DHT22;3210;48.708;9.030;2023-05-18T22:34:25;10.80;1.00
6355;DHT22;3210;48.708;9.030;2023-05-18T22:36:52;10.90;1.00
6355;DHT22;3210;48.708;9.030;2023-05-18T22:39:19;10.90;1.00
6355;DHT22;3210;48.708;9.030;2023-05-18T22:41:46;11.00;1.00
6355;DHT22;3210;48.708;9.030;2023-05-18T22:44:12;10.80;1.00
6355;DHT22;3210;48.708;9.030;2023-05-18T22:46:42;10.90;1.00
6355;DHT22;3210;48.708;9.030;2023-05-18T22:49:09;11.20;1.00
6355;DHT22;3210;48.708;9.030;2023-05-18T22:51:37;11.20;1.00
6355;DHT22;3210;48.708;9.030;2023-05-18T22:54:05;11.10;1.00
6355;DHT22;3210;48.708;9.030;2023-05-18T22:56:32;11.20;1.00
6355;DHT22;3210;48.708;9.030;2023-05-18T22:58:59;11.20;1.00
6355;DHT22;3210;48.708;9.030;2023-05-18T23:01:26;11.20;1.00
6355;DHT22;3210;48.708;9.030;2023-05-18T23:03:53;11.20;1.00
6355;DHT22;3210;48.708;9.030;2023-05-18T23:06:20;11.10;1.00
6355;DHT22;3210;48.708;9.030;2023-05-18T23:08:49;11.10;1.00
6355;DHT22;3210;48.708;9.030;2023-05-18T23:11:16;11.10;1.00
6355;DHT22;3210;48.708;9.030;2023-05-18T23:13:44;11.20;1.00
6355;DHT22;3210;48.708;9.030;2023-05-18T23:16:11;11.10;1.00
6355;DHT22;3210;48.708;9.030;2023-05-18T23:18:37;11.10;1.00
6355;DHT22;3210;48.708;9.030;2023-05-18T23:21:04;11.10;1.00
6355;DHT22;3210;48.708;9.030;2023-05-18T23:23:33;11.10;1.00
6355;DHT22;3210;48.708;9.030;2023-05-18T23:26:01;11.10;1.00
6355;DHT22;3210;48.708;9.030;2023-05-18T23:28:28;11.00;1.00
6355;DHT22;3210;48.708;9.030;2023-05-18T23:30:55;11.10;1.00
6355;DHT22;3210;48.708;9.030;2023-05-18T23:33:22;11.00;1.00
6355;DHT22;3210;48.708;9.030;2023-05-18T23:35:50;11.00;1.00
6355;DHT22;3210;48.708;9.030;2023-05-18T23:38:18;11.00;1.00
6355;DHT22;3210;48.708;9.030;2023-05-18T23:40:48;11.00;1.00
6355;DHT22;3210;48.708;9.030;2023-05-18T23:43:19;11.00;1.00
6355;DHT22;3210;48.708;9.030;2023-05-18T23:45:46;10.90;1.00
6355;DHT22;3210;48.708;9.030;2023-05-18T23:48:13;10.90;1.00
6355;DHT22;3210;48.708;9.030;2023-05-18T23:50:41;10.90;1.00
6355;DHT22;3210;48.708;9.030;2023-05-18T23:53:10;10.90;1.00
6355;DHT22;3210;48.708;9.030;2023-05-18T23:55:39;10.80;1.00
6355;DHT22;3210;48.708;9.030;2023-05-18T23:58:07;10.80;1.00
